createdAt,value
2019-04-01T00:02:08.714Z,90.40
2019-04-01T00:04:35.501Z,89.90
2019-04-01T00:07:02.299Z,89.30
2019-04-01T00:09:29.069Z,89.70
2019-04-01T00:11:55.924Z,90.00
2019-04-01T00:14:22.719Z,90.10
2019-04-01T00:16:49.499Z,90.50
2019-04-01T00:19:16.295Z,90.90
2019-04-01T00:21:44.571Z,91.30
2019-04-01T00:24:11.658Z,91.40
2019-04-01T00:26:38.330Z,91.30
2019-04-01T00:29:05.125Z,90.80
2019-04-01T00:31:31.915Z,91.20
2019-04-01T00:33:58.693Z,91.50
2019-04-01T00:36:25.520Z,91.40
2019-04-01T00:38:52.356Z,91.80
2019-04-01T00:41:19.333Z,91.70
2019-04-01T00:44:00.244Z,92.00
2019-04-01T00:46:27.233Z,92.20
2019-04-01T00:48:54.013Z,92.30
2019-04-01T00:51:20.859Z,92.20
2019-04-01T00:53:47.720Z,91.90
2019-04-01T00:56:14.542Z,91.90
2019-04-01T00:58:41.363Z,91.90
2019-04-01T01:01:08.138Z,92.00
2019-04-01T01:03:34.928Z,92.00
2019-04-01T01:06:01.776Z,92.20
2019-04-01T01:08:28.563Z,92.10
2019-04-01T01:10:55.343Z,92.90
2019-04-01T01:13:22.267Z,93.00
2019-04-01T01:15:49.051Z,93.50
2019-04-01T01:18:15.838Z,93.60
2019-04-01T01:20:42.778Z,93.80
2019-04-01T01:23:09.581Z,93.80
2019-04-01T01:25:36.383Z,93.80
2019-04-01T01:28:03.497Z,93.80
2019-04-01T01:30:30.282Z,93.90
2019-04-01T01:32:57.083Z,94.00
2019-04-01T01:35:23.868Z,94.10
2019-04-01T01:37:51.388Z,93.90
2019-04-01T01:40:18.251Z,94.30
2019-04-01T01:42:45.227Z,94.20
2019-04-01T01:45:12.035Z,94.10
2019-04-01T01:47:38.815Z,94.60
2019-04-01T01:50:06.948Z,94.20
2019-04-01T01:52:33.724Z,94.30
2019-04-01T01:55:00.521Z,94.50
2019-04-01T01:57:27.444Z,94.60
2019-04-01T01:59:54.208Z,94.30
2019-04-01T02:02:21.000Z,94.40
2019-04-01T02:04:48.150Z,94.30
2019-04-01T02:07:14.934Z,94.20
2019-04-01T02:09:41.714Z,94.20
2019-04-01T02:12:08.548Z,93.90
2019-04-01T02:14:35.318Z,93.40
2019-04-01T02:17:02.119Z,92.50
2019-04-01T02:19:28.944Z,92.20
2019-04-01T02:21:55.756Z,92.40
2019-04-01T02:24:22.548Z,92.10
2019-04-01T02:26:49.339Z,92.40
2019-04-01T02:29:16.119Z,92.30
2019-04-01T02:31:43.212Z,92.50
2019-04-01T02:34:10.019Z,92.70
2019-04-01T02:36:36.793Z,92.70
2019-04-01T02:39:07.210Z,92.80
2019-04-01T02:41:34.193Z,92.70
2019-04-01T02:44:01.070Z,92.40
2019-04-01T02:46:27.866Z,92.20
2019-04-01T02:48:54.690Z,92.20
2019-04-01T02:51:21.458Z,91.90
2019-04-01T02:53:48.245Z,91.30
2019-04-01T02:56:15.048Z,91.20
2019-04-01T02:58:41.819Z,91.00
2019-04-01T03:01:08.704Z,90.80
2019-04-01T03:03:35.590Z,90.90
2019-04-01T03:06:02.395Z,90.70
2019-04-01T03:08:29.238Z,90.80
2019-04-01T03:10:56.084Z,89.80
2019-04-01T03:13:22.974Z,90.60
2019-04-01T03:15:49.748Z,90.40
2019-04-01T03:18:16.551Z,91.20
2019-04-01T03:20:43.328Z,91.40
2019-04-01T03:23:10.110Z,92.50
2019-04-01T03:25:37.427Z,91.90
2019-04-01T03:28:04.311Z,92.40
2019-04-01T03:30:31.125Z,93.70
2019-04-01T03:32:58.100Z,93.90
2019-04-01T03:35:24.874Z,94.20
2019-04-01T03:37:51.642Z,94.30
2019-04-01T03:40:18.759Z,94.40
2019-04-01T03:42:45.535Z,95.30
2019-04-01T03:45:14.519Z,95.50
2019-04-01T03:47:41.308Z,96.70
2019-04-01T03:50:08.114Z,96.80
2019-04-01T03:52:34.969Z,96.40
2019-04-01T03:55:01.769Z,96.50
2019-04-01T03:57:28.579Z,96.60
2019-04-01T03:59:55.360Z,97.40
2019-04-01T04:02:22.188Z,97.60
2019-04-01T04:04:49.490Z,98.10
2019-04-01T04:07:16.289Z,98.00
2019-04-01T04:09:43.392Z,98.30
2019-04-01T04:12:10.185Z,98.50
2019-04-01T04:14:36.971Z,98.60
2019-04-01T04:17:04.293Z,98.50
2019-04-01T04:19:31.058Z,97.90
2019-04-01T04:21:58.140Z,97.90
2019-04-01T04:24:25.290Z,98.40
2019-04-01T04:26:52.214Z,98.20
2019-04-01T04:29:19.042Z,98.10
2019-04-01T04:31:45.849Z,99.00
2019-04-01T04:34:12.628Z,98.80
2019-04-01T04:36:39.466Z,98.50
2019-04-01T04:39:06.276Z,98.80
2019-04-01T04:41:33.055Z,99.00
2019-04-01T04:44:00.054Z,99.10
2019-04-01T04:46:27.318Z,98.50
2019-04-01T04:48:54.142Z,98.80
2019-04-01T04:51:20.918Z,98.80
2019-04-01T04:53:48.056Z,99.80
2019-04-01T04:56:14.866Z,99.90
2019-04-01T04:58:41.640Z,99.90
2019-04-01T05:01:08.877Z,99.90
2019-04-01T05:03:35.669Z,99.90
2019-04-01T05:06:02.439Z,99.90
2019-04-01T05:08:29.345Z,99.90
2019-04-01T05:10:56.122Z,99.90
2019-04-01T05:13:22.912Z,99.90
2019-04-01T05:15:49.737Z,99.90
2019-04-01T05:18:16.519Z,99.90
2019-04-01T05:20:45.790Z,99.90
2019-04-01T05:23:12.569Z,99.90
2019-04-01T05:25:41.033Z,99.90
2019-04-01T05:28:10.419Z,99.90
2019-04-01T05:30:37.404Z,99.90
2019-04-01T05:33:04.476Z,99.90
2019-04-01T05:35:34.801Z,99.90
2019-04-01T05:38:03.310Z,99.90
2019-04-01T05:40:30.284Z,99.90
2019-04-01T05:42:57.549Z,99.90
2019-04-01T05:45:24.390Z,99.90
2019-04-01T05:47:53.670Z,99.90
2019-04-01T05:50:20.443Z,99.90
2019-04-01T05:52:48.646Z,99.90
2019-04-01T05:55:15.440Z,99.90
2019-04-01T05:57:42.220Z,99.90
2019-04-01T06:00:11.607Z,99.90
2019-04-01T06:02:38.384Z,99.90
2019-04-01T06:05:06.459Z,99.90
2019-04-01T06:07:34.203Z,99.90
2019-04-01T06:10:01.010Z,99.90
2019-04-01T06:12:28.403Z,99.90
2019-04-01T06:14:56.313Z,99.90
2019-04-01T06:17:23.389Z,99.90
2019-04-01T06:19:50.477Z,99.90
2019-04-01T06:22:17.312Z,99.90
2019-04-01T06:24:44.084Z,99.90
2019-04-01T06:27:11.178Z,99.90
2019-04-01T06:29:38.553Z,99.90
2019-04-01T06:32:05.419Z,99.90
2019-04-01T06:34:32.177Z,99.90
2019-04-01T06:36:58.961Z,99.90
2019-04-01T06:39:25.940Z,99.90
2019-04-01T06:41:53.081Z,99.90
2019-04-01T06:44:20.233Z,99.90
2019-04-01T06:46:47.049Z,99.90
2019-04-01T06:49:13.871Z,99.90
2019-04-01T06:51:40.693Z,99.90
2019-04-01T06:54:07.465Z,99.90
2019-04-01T06:56:34.234Z,99.90
2019-04-01T06:59:01.317Z,99.90
2019-04-01T07:01:28.099Z,99.90
2019-04-01T07:03:54.881Z,99.90
2019-04-01T07:06:21.681Z,99.90
2019-04-01T07:08:48.872Z,99.90
2019-04-01T07:11:16.334Z,99.90
2019-04-01T07:13:43.451Z,99.90
2019-04-01T07:16:15.701Z,99.90
2019-04-01T07:18:39.348Z,99.20
2019-04-01T07:21:06.471Z,98.90
2019-04-01T07:23:33.854Z,99.10
2019-04-01T07:26:01.001Z,98.20
2019-04-01T07:28:27.803Z,98.20
2019-04-01T07:30:54.598Z,97.30
2019-04-01T07:33:21.430Z,97.20
2019-04-01T07:35:48.699Z,97.20
2019-04-01T07:38:15.470Z,96.00
2019-04-01T07:40:42.248Z,96.00
2019-04-01T07:43:09.091Z,96.30
2019-04-01T07:45:35.909Z,95.40
2019-04-01T07:48:02.680Z,95.20
2019-04-01T07:50:29.502Z,95.10
2019-04-01T07:52:56.332Z,94.80
2019-04-01T07:55:23.107Z,94.50
2019-04-01T07:57:49.852Z,94.30
2019-04-01T08:00:17.485Z,94.00
2019-04-01T08:02:44.437Z,93.30
2019-04-01T08:05:11.549Z,92.00
2019-04-01T08:07:38.332Z,92.10
2019-04-01T08:10:06.629Z,90.50
2019-04-01T08:12:33.529Z,89.70
2019-04-01T08:15:00.411Z,90.00
2019-04-01T08:17:27.309Z,89.80
2019-04-01T08:19:54.355Z,90.40
2019-04-01T08:22:21.486Z,89.80
2019-04-01T08:24:48.666Z,88.60
2019-04-01T08:27:15.458Z,88.10
2019-04-01T08:29:42.233Z,87.80
2019-04-01T08:32:09.026Z,89.30
2019-04-01T08:34:35.859Z,88.90
2019-04-01T08:37:03.064Z,89.10
2019-04-01T08:39:30.813Z,89.40
2019-04-01T08:41:58.741Z,89.30
2019-04-01T08:44:25.515Z,87.00
2019-04-01T08:46:52.317Z,87.50
2019-04-01T08:49:19.118Z,86.80
2019-04-01T08:51:45.934Z,86.00
2019-04-01T08:54:12.720Z,86.30
2019-04-01T08:56:39.602Z,86.50
2019-04-01T08:59:06.381Z,86.80
2019-04-01T09:01:35.420Z,85.70
2019-04-01T09:04:02.036Z,86.30
2019-04-01T09:06:31.280Z,86.30
2019-04-01T09:08:59.748Z,85.40
2019-04-01T09:11:27.478Z,85.40
2019-04-01T09:13:54.684Z,85.20
2019-04-01T09:16:22.082Z,84.50
2019-04-01T09:18:49.145Z,85.30
2019-04-01T09:21:15.917Z,84.10
2019-04-01T09:23:42.717Z,84.30
2019-04-01T09:26:09.711Z,84.10
2019-04-01T09:28:36.485Z,83.50
2019-04-01T09:31:03.357Z,84.10
2019-04-01T09:33:30.177Z,84.00
2019-04-01T09:35:56.968Z,83.70
2019-04-01T09:38:23.729Z,83.00
2019-04-01T09:40:50.836Z,83.00
2019-04-01T09:43:17.663Z,82.80
2019-04-01T09:45:44.451Z,82.50
2019-04-01T09:48:11.263Z,82.40
2019-04-01T09:50:38.036Z,79.90
2019-04-01T09:53:05.023Z,79.50
2019-04-01T09:55:31.807Z,81.00
2019-04-01T09:57:58.580Z,79.90
2019-04-01T10:00:25.368Z,78.30
2019-04-01T10:02:52.329Z,79.40
2019-04-01T10:05:19.088Z,79.60
2019-04-01T10:07:46.016Z,78.00
2019-04-01T10:10:13.185Z,78.50
2019-04-01T10:12:40.005Z,78.30
2019-04-01T10:15:07.185Z,76.60
2019-04-01T10:17:33.997Z,76.30
2019-04-01T10:20:01.437Z,75.40
2019-04-01T10:22:28.921Z,75.70
2019-04-01T10:24:55.714Z,75.20
2019-04-01T10:27:22.551Z,74.50
2019-04-01T10:29:49.387Z,75.10
2019-04-01T10:32:16.436Z,74.40
2019-04-01T10:34:43.362Z,74.50
2019-04-01T10:37:10.187Z,73.80
2019-04-01T10:39:37.265Z,74.10
2019-04-01T10:42:04.147Z,73.00
2019-04-01T10:44:30.927Z,69.90
2019-04-01T10:46:57.763Z,70.00
2019-04-01T10:49:24.637Z,70.30
2019-04-01T10:51:51.400Z,69.30
2019-04-01T10:54:18.265Z,68.70
2019-04-01T10:56:45.349Z,69.10
2019-04-01T10:59:12.205Z,69.30
2019-04-01T11:01:39.028Z,70.10
2019-04-01T11:04:05.801Z,70.10
2019-04-01T11:06:32.645Z,69.50
2019-04-01T11:08:59.555Z,70.20
2019-04-01T11:11:27.153Z,70.40
2019-04-01T11:13:54.413Z,71.00
2019-04-01T11:16:21.625Z,71.00
2019-04-01T11:18:48.416Z,71.60
2019-04-01T11:21:15.188Z,71.10
2019-04-01T11:23:42.027Z,71.80
2019-04-01T11:26:08.938Z,72.50
2019-04-01T11:28:35.703Z,73.10
2019-04-01T11:31:02.524Z,74.30
2019-04-01T11:33:29.338Z,73.90
2019-04-01T11:35:56.327Z,74.00
2019-04-01T11:38:23.272Z,73.60
2019-04-01T11:40:50.397Z,74.30
2019-04-01T11:43:17.871Z,73.90
2019-04-01T11:45:45.189Z,74.30
2019-04-01T11:48:12.051Z,75.50
2019-04-01T11:50:38.840Z,75.60
2019-04-01T11:53:06.949Z,75.80
2019-04-01T11:55:34.133Z,75.80
2019-04-01T11:58:00.903Z,75.20
2019-04-01T12:00:27.922Z,75.20
2019-04-01T12:02:54.708Z,75.20
2019-04-01T12:05:21.890Z,74.60
2019-04-01T12:07:49.303Z,74.50
2019-04-01T12:10:16.091Z,74.90
2019-04-01T12:12:42.999Z,75.50
2019-04-01T12:15:12.391Z,75.10
2019-04-01T12:17:41.587Z,75.10
2019-04-01T12:20:09.451Z,75.30
2019-04-01T12:22:36.503Z,74.60
2019-04-01T12:25:06.094Z,74.10
2019-04-01T12:27:32.910Z,73.70
2019-04-01T12:29:59.939Z,73.40
2019-04-01T12:32:26.746Z,72.80
2019-04-01T12:34:53.527Z,72.30
2019-04-01T12:37:20.661Z,72.10
2019-04-01T12:39:47.537Z,72.80
2019-04-01T12:42:14.345Z,72.70
2019-04-01T12:44:41.595Z,72.80
2019-04-01T12:47:08.806Z,72.80
2019-04-01T12:49:35.884Z,72.00
2019-04-01T12:52:02.791Z,72.10
2019-04-01T12:54:29.601Z,72.00
2019-04-01T12:56:56.400Z,70.50
2019-04-01T12:59:23.616Z,71.10
2019-04-01T13:01:51.449Z,70.80
2019-04-01T13:04:18.234Z,71.00
2019-04-01T13:06:45.150Z,71.20
2019-04-01T13:09:11.933Z,70.20
2019-04-01T13:11:38.721Z,70.10
2019-04-01T13:14:05.506Z,69.10
2019-04-01T13:16:32.289Z,68.50
2019-04-01T13:18:59.064Z,68.60
2019-04-01T13:21:26.232Z,68.70
2019-04-01T13:23:53.128Z,68.40
2019-04-01T13:26:19.923Z,68.50
2019-04-01T13:28:46.721Z,66.90
2019-04-01T13:31:13.497Z,66.90
2019-04-01T13:33:40.321Z,67.50
2019-04-01T13:36:07.998Z,66.00
2019-04-01T13:38:34.977Z,66.30
2019-04-01T13:41:01.989Z,63.90
2019-04-01T13:43:28.985Z,64.10
2019-04-01T13:45:55.997Z,62.80
2019-04-01T13:48:22.776Z,61.40
2019-04-01T13:50:49.860Z,60.90
2019-04-01T13:53:16.768Z,60.60
2019-04-01T13:55:43.552Z,58.80
2019-04-01T13:58:10.938Z,59.20
2019-04-01T14:00:38.056Z,55.50
2019-04-01T14:03:04.850Z,51.30
2019-04-01T14:05:31.800Z,52.60
2019-04-01T14:07:58.591Z,52.60
2019-04-01T14:10:25.371Z,50.00
2019-04-01T14:12:52.335Z,46.80
2019-04-01T14:15:19.105Z,47.80
2019-04-01T14:17:45.905Z,46.00
2019-04-01T14:20:12.787Z,45.30
2019-04-01T14:22:39.583Z,44.00
2019-04-01T14:25:07.539Z,44.30
2019-04-01T14:27:34.348Z,44.40
2019-04-01T14:30:01.146Z,44.00
2019-04-01T14:32:27.837Z,45.50
2019-04-01T14:34:54.831Z,45.10
2019-04-01T14:37:25.981Z,45.50
2019-04-01T14:39:50.292Z,44.80
2019-04-01T14:42:17.490Z,44.40
2019-04-01T14:44:58.584Z,44.80
2019-04-01T14:47:26.212Z,45.50
2019-04-01T14:49:52.986Z,46.30
2019-04-01T14:52:31.754Z,44.50
2019-04-01T14:54:48.720Z,45.00
2019-04-01T14:57:15.512Z,44.90
2019-04-01T14:59:42.300Z,44.00
2019-04-01T15:02:09.733Z,44.70
2019-04-01T15:04:36.526Z,45.10
2019-04-01T15:07:03.407Z,44.70
2019-04-01T15:09:30.519Z,45.90
2019-04-01T15:11:57.427Z,44.50
2019-04-01T15:14:24.263Z,43.50
2019-04-01T15:16:51.512Z,44.30
2019-04-01T15:19:18.295Z,44.00
2019-04-01T15:21:47.377Z,43.70
2019-04-01T15:24:13.846Z,43.00
2019-04-01T15:26:40.639Z,43.30
2019-04-01T15:29:07.462Z,44.10
2019-04-01T15:31:34.592Z,44.20
2019-04-01T15:34:01.390Z,44.60
2019-04-01T15:36:28.157Z,44.90
2019-04-01T15:38:54.995Z,45.60
2019-04-01T15:41:21.798Z,45.10
2019-04-01T15:43:48.602Z,45.30
2019-04-01T15:46:15.676Z,44.50
2019-04-01T15:48:42.460Z,45.80
2019-04-01T15:51:09.230Z,45.40
2019-04-01T15:53:36.144Z,45.80
2019-04-01T15:56:02.982Z,46.70
2019-04-01T15:58:29.759Z,46.90
2019-04-01T16:00:56.568Z,47.20
2019-04-01T16:03:23.377Z,47.70
2019-04-01T16:05:50.163Z,48.20
2019-04-01T16:08:17.196Z,48.50
2019-04-01T16:10:43.982Z,48.40
2019-04-01T16:13:10.785Z,49.20
2019-04-01T16:15:38.486Z,49.20
2019-04-01T16:18:05.648Z,49.10
2019-04-01T16:20:34.321Z,50.10
2019-04-01T16:23:01.271Z,51.00
2019-04-01T16:25:28.066Z,51.10
2019-04-01T16:27:54.856Z,51.50
2019-04-01T16:30:22.080Z,51.20
2019-04-01T16:32:48.975Z,51.60
2019-04-01T16:35:15.765Z,52.20
2019-04-01T16:37:42.661Z,51.90
2019-04-01T16:40:10.685Z,52.70
2019-04-01T16:42:37.696Z,53.00
2019-04-01T16:45:07.287Z,52.90
2019-04-01T16:47:34.751Z,53.40
2019-04-01T16:50:02.486Z,53.30
2019-04-01T16:52:29.774Z,53.50
2019-04-01T16:55:00.432Z,52.80
2019-04-01T16:57:27.218Z,53.30
2019-04-01T16:59:54.255Z,52.80
2019-04-01T17:02:21.533Z,53.50
2019-04-01T17:04:48.853Z,54.00
2019-04-01T17:07:19.339Z,54.90
2019-04-01T17:09:44.713Z,55.10
2019-04-01T17:12:11.701Z,55.40
2019-04-01T17:14:38.660Z,54.90
2019-04-01T17:17:05.533Z,55.10
2019-04-01T17:19:32.314Z,55.10
2019-04-01T17:21:59.132Z,55.40
2019-04-01T17:24:26.014Z,54.80
2019-04-01T17:27:12.426Z,54.90
2019-04-01T17:29:41.930Z,55.10
2019-04-01T17:32:08.739Z,55.40
2019-04-01T17:34:35.546Z,55.60
2019-04-01T17:37:02.311Z,55.60
2019-04-01T17:39:29.108Z,56.00
2019-04-01T17:41:55.957Z,56.50
2019-04-01T17:44:22.772Z,56.30
2019-04-01T17:46:49.727Z,56.20
2019-04-01T17:49:16.591Z,56.40
2019-04-01T17:51:43.416Z,56.40
2019-04-01T17:54:10.211Z,56.20
2019-04-01T17:56:37.109Z,55.90
2019-04-01T17:59:04.287Z,56.00
2019-04-01T18:01:31.064Z,56.10
2019-04-01T18:03:58.008Z,57.50
2019-04-01T18:06:24.773Z,57.30
2019-04-01T18:08:51.552Z,58.30
2019-04-01T18:11:18.402Z,58.90
2019-04-01T18:13:45.289Z,58.90
2019-04-01T18:16:12.065Z,60.70
2019-04-01T18:18:39.419Z,61.40
2019-04-01T18:21:06.369Z,61.50
2019-04-01T18:23:33.164Z,60.80
2019-04-01T18:26:00.118Z,61.10
2019-04-01T18:28:26.893Z,61.40
2019-04-01T18:30:53.722Z,61.60
2019-04-01T18:33:20.852Z,62.40
2019-04-01T18:35:47.721Z,61.50
2019-04-01T18:38:14.531Z,60.80
2019-04-01T18:40:41.341Z,61.80
2019-04-01T18:43:08.115Z,61.80
2019-04-01T18:45:34.919Z,62.20
2019-04-01T18:48:01.722Z,62.80
2019-04-01T18:50:29.122Z,61.80
2019-04-01T18:52:55.897Z,61.20
2019-04-01T18:55:22.823Z,61.20
2019-04-01T18:57:49.937Z,61.50
2019-04-01T19:00:18.281Z,61.70
2019-04-01T19:02:45.692Z,61.90
2019-04-01T19:05:12.989Z,61.80
2019-04-01T19:07:39.795Z,61.70
2019-04-01T19:10:07.081Z,62.20
2019-04-01T19:12:33.887Z,62.60
2019-04-01T19:15:02.553Z,62.10
2019-04-01T19:17:29.389Z,62.60
2019-04-01T19:19:56.239Z,62.20
2019-04-01T19:22:23.322Z,62.00
2019-04-01T19:24:50.126Z,63.40
2019-04-01T19:27:16.922Z,62.50
2019-04-01T19:29:45.410Z,62.30
2019-04-01T19:32:14.742Z,63.10
2019-04-01T19:34:41.091Z,63.20
2019-04-01T19:37:09.914Z,64.10
2019-04-01T19:39:37.245Z,64.90
2019-04-01T19:42:04.019Z,64.50
2019-04-01T19:44:30.902Z,64.70
2019-04-01T19:46:57.732Z,65.40
2019-04-01T19:49:24.513Z,64.40
2019-04-01T19:51:51.338Z,64.10
2019-04-01T19:54:28.036Z,64.50
2019-04-01T19:56:47.111Z,63.70
2019-04-01T19:59:13.897Z,64.20
2019-04-01T20:01:41.029Z,65.00
2019-04-01T20:04:07.720Z,65.10
2019-04-01T20:06:34.545Z,66.00
2019-04-01T20:09:01.430Z,66.90
2019-04-01T20:11:28.209Z,67.00
2019-04-01T20:13:55.165Z,67.30
2019-04-01T20:16:22.008Z,67.50
2019-04-01T20:18:48.829Z,68.80
2019-04-01T20:21:15.624Z,68.80
2019-04-01T20:23:42.659Z,69.20
2019-04-01T20:26:09.425Z,68.60
2019-04-01T20:28:36.277Z,68.90
2019-04-01T20:31:03.568Z,68.40
2019-04-01T20:33:31.823Z,69.50
2019-04-01T20:35:58.866Z,69.40
2019-04-01T20:38:27.145Z,69.40
2019-04-01T20:40:54.413Z,69.40
2019-04-01T20:43:21.491Z,68.90
2019-04-01T20:45:48.282Z,68.20
2019-04-01T20:48:15.081Z,68.40
2019-04-01T20:50:41.858Z,67.40
2019-04-01T20:53:08.677Z,67.20
2019-04-01T20:55:47.679Z,67.10
2019-04-01T20:58:04.599Z,67.20
2019-04-01T21:00:31.654Z,67.70
2019-04-01T21:02:58.495Z,67.60
2019-04-01T21:05:25.296Z,67.40
2019-04-01T21:07:52.085Z,67.20
2019-04-01T21:10:18.845Z,67.20
2019-04-01T21:12:45.643Z,67.00
2019-04-01T21:15:13.467Z,66.70
2019-04-01T21:17:40.299Z,66.00
2019-04-01T21:20:07.680Z,67.00
2019-04-01T21:22:34.573Z,67.70
2019-04-01T21:25:02.284Z,68.20
2019-04-01T21:27:29.363Z,68.40
2019-04-01T21:29:56.269Z,69.90
2019-04-01T21:32:23.346Z,69.30
2019-04-01T21:34:50.122Z,69.90
2019-04-01T21:37:17.024Z,70.60
2019-04-01T21:39:43.905Z,70.00
2019-04-01T21:42:10.704Z,71.10
2019-04-01T21:44:37.544Z,71.00
2019-04-01T21:47:04.338Z,72.40
2019-04-01T21:49:31.241Z,71.80
2019-04-01T21:51:58.071Z,72.00
2019-04-01T21:54:24.855Z,71.80
2019-04-01T21:56:52.110Z,71.90
2019-04-01T21:59:19.501Z,72.00
2019-04-01T22:01:46.715Z,72.30
2019-04-01T22:04:13.717Z,71.90
2019-04-01T22:06:41.118Z,72.40
2019-04-01T22:09:09.541Z,72.10
2019-04-01T22:11:36.379Z,72.60
2019-04-01T22:14:03.363Z,73.30
2019-04-01T22:16:30.157Z,73.60
2019-04-01T22:18:56.968Z,73.90
2019-04-01T22:21:23.814Z,73.60
2019-04-01T22:23:50.598Z,73.40
2019-04-01T22:26:17.698Z,73.80
2019-04-01T22:28:44.632Z,74.50
2019-04-01T22:31:11.412Z,73.90
2019-04-01T22:33:38.210Z,74.80
2019-04-01T22:36:05.038Z,74.60
2019-04-01T22:38:31.836Z,74.90
2019-04-01T22:41:00.088Z,75.70
2019-04-01T22:43:27.618Z,76.10
2019-04-01T22:45:54.387Z,76.20
2019-04-01T22:48:21.167Z,75.90
2019-04-01T22:50:48.052Z,76.30
2019-04-01T22:53:14.839Z,76.70
2019-04-01T22:55:41.625Z,76.90
2019-04-01T22:58:08.457Z,76.70
2019-04-01T23:00:35.247Z,76.70
2019-04-01T23:03:02.095Z,76.10
2019-04-01T23:05:28.934Z,76.40
2019-04-01T23:07:55.697Z,77.50
2019-04-01T23:10:22.776Z,77.00
2019-04-01T23:12:50.946Z,77.00
2019-04-01T23:15:18.703Z,75.90
2019-04-01T23:17:45.477Z,75.50
2019-04-01T23:20:12.697Z,75.70
2019-04-01T23:22:39.479Z,75.40
2019-04-01T23:25:06.947Z,75.20
2019-04-01T23:27:33.774Z,75.10
2019-04-01T23:30:00.821Z,75.30
2019-04-01T23:32:27.629Z,75.90
2019-04-01T23:34:54.449Z,77.10
2019-04-01T23:37:21.219Z,77.80
2019-04-01T23:39:48.001Z,77.40
2019-04-01T23:42:14.835Z,77.00
2019-04-01T23:44:41.603Z,76.90
2019-04-01T23:47:08.407Z,77.00
2019-04-01T23:49:35.526Z,77.10
2019-04-01T23:52:02.331Z,78.60
2019-04-01T23:54:31.029Z,78.00
2019-04-01T23:56:58.091Z,79.70
2019-04-01T23:59:24.862Z,80.20
